sensor_id;sensor_type;location;lat;lon;timestamp;P1;durP1;ratioP1;P2;durP2;ratioP2
66581;SDS011;53438;48.898;2.308;2024-03-22T00:01:47;22.30;;;14.32;;
66581;SDS011;53438;48.898;2.308;2024-03-22T00:04:13;24.60;;;14.03;;
66581;SDS011;53438;48.898;2.308;2024-03-22T00:06:40;28.80;;;14.20;;
66581;SDS011;53438;48.898;2.308;2024-03-22T00:09:06;26.92;;;14.57;;
66581;SDS011;53438;48.898;2.308;2024-03-22T00:11:32;25.57;;;14.67;;
66581;SDS011;53438;48.898;2.308;2024-03-22T00:13:58;24.97;;;15.10;;
66581;SDS011;53438;48.898;2.308;2024-03-22T00:16:23;25.92;;;15.07;;
66581;SDS011;53438;48.898;2.308;2024-03-22T00:18:49;21.87;;;14.20;;
66581;SDS011;53438;48.898;2.308;2024-03-22T00:21:14;21.50;;;13.70;;
66581;SDS011;53438;48.898;2.308;2024-03-22T00:23:39;29.67;;;13.23;;
66581;SDS011;53438;48.898;2.308;2024-03-22T00:26:05;26.40;;;12.70;;
66581;SDS011;53438;48.898;2.308;2024-03-22T00:28:30;22.67;;;14.10;;
66581;SDS011;53438;48.898;2.308;2024-03-22T00:30:55;25.60;;;13.33;;
66581;SDS011;53438;48.898;2.308;2024-03-22T00:33:21;24.17;;;14.20;;
66581;SDS011;53438;48.898;2.308;2024-03-22T00:35:47;22.13;;;13.87;;
66581;SDS011;53438;48.898;2.308;2024-03-22T00:38:12;25.80;;;13.73;;
66581;SDS011;53438;48.898;2.308;2024-03-22T00:40:37;21.97;;;12.97;;
66581;SDS011;53438;48.898;2.308;2024-03-22T00:43:03;25.57;;;14.20;;
66581;SDS011;53438;48.898;2.308;2024-03-22T00:45:28;26.57;;;13.93;;
66581;SDS011;53438;48.898;2.308;2024-03-22T00:47:54;26.13;;;14.85;;
66581;SDS011;53438;48.898;2.308;2024-03-22T00:50:19;23.70;;;14.77;;
66581;SDS011;53438;48.898;2.308;2024-03-22T00:52:44;22.40;;;13.07;;
66581;SDS011;53438;48.898;2.308;2024-03-22T00:55:10;25.10;;;14.40;;
66581;SDS011;53438;48.898;2.308;2024-03-22T00:57:35;26.63;;;14.37;;
66581;SDS011;53438;48.898;2.308;2024-03-22T01:00:00;24.60;;;14.37;;
66581;SDS011;53438;48.898;2.308;2024-03-22T04:01:22;25.40;;;14.85;;
66581;SDS011;53438;48.898;2.308;2024-03-22T04:03:51;24.60;;;14.70;;
66581;SDS011;53438;48.898;2.308;2024-03-22T04:06:16;27.00;;;14.27;;
66581;SDS011;53438;48.898;2.308;2024-03-22T04:08:42;23.75;;;13.95;;
66581;SDS011;53438;48.898;2.308;2024-03-22T04:11:07;24.42;;;14.13;;
66581;SDS011;53438;48.898;2.308;2024-03-22T04:13:33;27.53;;;14.43;;
66581;SDS011;53438;48.898;2.308;2024-03-22T04:15:59;25.52;;;15.23;;
66581;SDS011;53438;48.898;2.308;2024-03-22T04:18:24;28.97;;;14.33;;
66581;SDS011;53438;48.898;2.308;2024-03-22T04:20:53;25.60;;;14.35;;
66581;SDS011;53438;48.898;2.308;2024-03-22T04:23:23;23.50;;;13.70;;
66581;SDS011;53438;48.898;2.308;2024-03-22T04:25:56;25.52;;;15.00;;
66581;SDS011;53438;48.898;2.308;2024-03-22T04:28:23;25.93;;;14.17;;
66581;SDS011;53438;48.898;2.308;2024-03-22T04:33:24;26.50;;;15.98;;
66581;SDS011;53438;48.898;2.308;2024-03-22T04:35:49;26.20;;;14.60;;
66581;SDS011;53438;48.898;2.308;2024-03-22T04:38:15;25.10;;;14.38;;
66581;SDS011;53438;48.898;2.308;2024-03-22T04:40:41;28.55;;;14.27;;
66581;SDS011;53438;48.898;2.308;2024-03-22T04:43:06;25.33;;;14.00;;
66581;SDS011;53438;48.898;2.308;2024-03-22T04:45:32;28.65;;;14.38;;
66581;SDS011;53438;48.898;2.308;2024-03-22T04:47:57;22.73;;;14.00;;
66581;SDS011;53438;48.898;2.308;2024-03-22T04:50:23;21.93;;;13.93;;
66581;SDS011;53438;48.898;2.308;2024-03-22T04:52:48;22.90;;;13.27;;
66581;SDS011;53438;48.898;2.308;2024-03-22T04:55:13;28.03;;;14.43;;
66581;SDS011;53438;48.898;2.308;2024-03-22T04:57:40;24.15;;;13.02;;
66581;SDS011;53438;48.898;2.308;2024-03-22T05:00:05;29.20;;;13.33;;
66581;SDS011;53438;48.898;2.308;2024-03-22T05:02:33;22.02;;;13.75;;
66581;SDS011;53438;48.898;2.308;2024-03-22T05:04:59;24.10;;;13.33;;
66581;SDS011;53438;48.898;2.308;2024-03-22T05:07:25;20.63;;;13.35;;
66581;SDS011;53438;48.898;2.308;2024-03-22T05:09:50;25.87;;;13.93;;
66581;SDS011;53438;48.898;2.308;2024-03-22T05:12:15;21.77;;;13.60;;
66581;SDS011;53438;48.898;2.308;2024-03-22T05:14:41;24.40;;;14.50;;
66581;SDS011;53438;48.898;2.308;2024-03-22T05:17:06;26.60;;;14.43;;
66581;SDS011;53438;48.898;2.308;2024-03-22T05:19:32;24.08;;;14.23;;
66581;SDS011;53438;48.898;2.308;2024-03-22T05:21:57;25.90;;;15.23;;
66581;SDS011;53438;48.898;2.308;2024-03-22T05:24:23;24.70;;;14.80;;
66581;SDS011;53438;48.898;2.308;2024-03-22T05:26:49;25.60;;;14.95;;
66581;SDS011;53438;48.898;2.308;2024-03-22T05:29:14;28.03;;;14.77;;
66581;SDS011;53438;48.898;2.308;2024-03-22T05:31:46;24.87;;;13.80;;
66581;SDS011;53438;48.898;2.308;2024-03-22T05:34:14;29.30;;;15.45;;
66581;SDS011;53438;48.898;2.308;2024-03-22T05:36:40;29.40;;;15.13;;
66581;SDS011;53438;48.898;2.308;2024-03-22T05:39:05;26.10;;;14.43;;
66581;SDS011;53438;48.898;2.308;2024-03-22T05:41:32;26.55;;;14.02;;
66581;SDS011;53438;48.898;2.308;2024-03-22T05:43:58;22.73;;;13.53;;
66581;SDS011;53438;48.898;2.308;2024-03-22T05:46:23;24.00;;;13.87;;
66581;SDS011;53438;48.898;2.308;2024-03-22T05:48:48;24.07;;;14.53;;
66581;SDS011;53438;48.898;2.308;2024-03-22T05:51:15;26.65;;;14.82;;
66581;SDS011;53438;48.898;2.308;2024-03-22T05:53:41;24.45;;;14.60;;
66581;SDS011;53438;48.898;2.308;2024-03-22T05:56:07;28.53;;;16.20;;
66581;SDS011;53438;48.898;2.308;2024-03-22T05:58:33;25.90;;;15.32;;
66581;SDS011;53438;48.898;2.308;2024-03-22T06:00:58;31.87;;;16.07;;
66581;SDS011;53438;48.898;2.308;2024-03-22T06:03:23;29.50;;;16.70;;
66581;SDS011;53438;48.898;2.308;2024-03-22T06:05:49;31.50;;;17.00;;
66581;SDS011;53438;48.898;2.308;2024-03-22T06:08:14;32.47;;;16.83;;
66581;SDS011;53438;48.898;2.308;2024-03-22T06:10:45;35.15;;;18.35;;
66581;SDS011;53438;48.898;2.308;2024-03-22T06:13:10;34.30;;;18.53;;
66581;SDS011;53438;48.898;2.308;2024-03-22T06:15:36;35.87;;;18.63;;
66581;SDS011;53438;48.898;2.308;2024-03-22T06:18:01;32.60;;;20.10;;
66581;SDS011;53438;48.898;2.308;2024-03-22T06:20:26;34.03;;;17.67;;
66581;SDS011;53438;48.898;2.308;2024-03-22T06:22:53;35.00;;;19.27;;
66581;SDS011;53438;48.898;2.308;2024-03-22T06:25:18;38.80;;;20.05;;
66581;SDS011;53438;48.898;2.308;2024-03-22T06:27:45;38.00;;;19.47;;
66581;SDS011;53438;48.898;2.308;2024-03-22T06:30:10;33.78;;;18.55;;
66581;SDS011;53438;48.898;2.308;2024-03-22T06:32:36;33.83;;;19.13;;
66581;SDS011;53438;48.898;2.308;2024-03-22T06:35:01;38.83;;;18.63;;
66581;SDS011;53438;48.898;2.308;2024-03-22T06:37:30;33.30;;;19.70;;
66581;SDS011;53438;48.898;2.308;2024-03-22T06:39:56;37.67;;;20.67;;
66581;SDS011;53438;48.898;2.308;2024-03-22T06:42:21;33.23;;;18.97;;
66581;SDS011;53438;48.898;2.308;2024-03-22T06:44:46;35.73;;;19.90;;
66581;SDS011;53438;48.898;2.308;2024-03-22T06:47:12;37.77;;;19.33;;
66581;SDS011;53438;48.898;2.308;2024-03-22T06:49:37;38.65;;;19.90;;
66581;SDS011;53438;48.898;2.308;2024-03-22T06:52:02;40.17;;;18.67;;
66581;SDS011;53438;48.898;2.308;2024-03-22T06:54:28;36.67;;;19.00;;
66581;SDS011;53438;48.898;2.308;2024-03-22T06:56:53;33.87;;;18.50;;
66581;SDS011;53438;48.898;2.308;2024-03-22T06:59:18;34.40;;;18.63;;
66581;SDS011;53438;48.898;2.308;2024-03-22T07:01:44;32.80;;;16.77;;
66581;SDS011;53438;48.898;2.308;2024-03-22T07:04:09;39.17;;;18.47;;
66581;SDS011;53438;48.898;2.308;2024-03-22T07:06:34;29.63;;;17.90;;
66581;SDS011;53438;48.898;2.308;2024-03-22T07:09:00;155.38;;;60.35;;
66581;SDS011;53438;48.898;2.308;2024-03-22T07:11:25;42.63;;;23.13;;
66581;SDS011;53438;48.898;2.308;2024-03-22T07:13:51;88.80;;;40.13;;
66581;SDS011;53438;48.898;2.308;2024-03-22T07:16:16;33.63;;;18.90;;
66581;SDS011;53438;48.898;2.308;2024-03-22T07:18:41;33.03;;;18.30;;
66581;SDS011;53438;48.898;2.308;2024-03-22T07:21:07;32.08;;;18.67;;
66581;SDS011;53438;48.898;2.308;2024-03-22T07:23:32;33.27;;;18.80;;
66581;SDS011;53438;48.898;2.308;2024-03-22T07:25:58;38.83;;;19.70;;
66581;SDS011;53438;48.898;2.308;2024-03-22T07:28:24;33.92;;;19.10;;
66581;SDS011;53438;48.898;2.308;2024-03-22T07:30:50;37.73;;;20.13;;
66581;SDS011;53438;48.898;2.308;2024-03-22T07:33:15;33.07;;;18.90;;
66581;SDS011;53438;48.898;2.308;2024-03-22T07:35:42;37.92;;;20.98;;
66581;SDS011;53438;48.898;2.308;2024-03-22T07:38:08;33.83;;;20.10;;
66581;SDS011;53438;48.898;2.308;2024-03-22T07:40:34;34.20;;;19.40;;
66581;SDS011;53438;48.898;2.308;2024-03-22T07:42:59;34.53;;;18.67;;
66581;SDS011;53438;48.898;2.308;2024-03-22T07:45:24;39.27;;;20.30;;
66581;SDS011;53438;48.898;2.308;2024-03-22T07:47:50;37.10;;;20.23;;
66581;SDS011;53438;48.898;2.308;2024-03-22T07:50:15;35.57;;;21.07;;
66581;SDS011;53438;48.898;2.308;2024-03-22T07:52:41;39.40;;;21.40;;
66581;SDS011;53438;48.898;2.308;2024-03-22T07:55:06;37.10;;;20.10;;
66581;SDS011;53438;48.898;2.308;2024-03-22T07:57:32;39.45;;;20.27;;
66581;SDS011;53438;48.898;2.308;2024-03-22T07:59:57;40.60;;;20.07;;
66581;SDS011;53438;48.898;2.308;2024-03-22T08:02:23;41.00;;;20.83;;
66581;SDS011;53438;48.898;2.308;2024-03-22T08:04:48;35.43;;;18.97;;
66581;SDS011;53438;48.898;2.308;2024-03-22T08:07:14;34.42;;;19.08;;
66581;SDS011;53438;48.898;2.308;2024-03-22T08:09:39;38.10;;;19.23;;
66581;SDS011;53438;48.898;2.308;2024-03-22T08:12:05;33.33;;;18.27;;
66581;SDS011;53438;48.898;2.308;2024-03-22T08:14:31;33.83;;;19.52;;
66581;SDS011;53438;48.898;2.308;2024-03-22T08:16:56;33.50;;;17.90;;
66581;SDS011;53438;48.898;2.308;2024-03-22T08:19:22;35.77;;;18.23;;
66581;SDS011;53438;48.898;2.308;2024-03-22T08:21:47;34.73;;;19.33;;
66581;SDS011;53438;48.898;2.308;2024-03-22T08:24:12;32.95;;;18.08;;
66581;SDS011;53438;48.898;2.308;2024-03-22T08:26:38;32.92;;;18.60;;
66581;SDS011;53438;48.898;2.308;2024-03-22T08:29:03;35.40;;;20.73;;
66581;SDS011;53438;48.898;2.308;2024-03-22T08:31:28;32.77;;;18.90;;
66581;SDS011;53438;48.898;2.308;2024-03-22T08:33:54;35.23;;;19.47;;
66581;SDS011;53438;48.898;2.308;2024-03-22T08:36:21;34.10;;;18.77;;
66581;SDS011;53438;48.898;2.308;2024-03-22T08:38:47;34.30;;;18.33;;
66581;SDS011;53438;48.898;2.308;2024-03-22T08:41:13;40.90;;;25.50;;
66581;SDS011;53438;48.898;2.308;2024-03-22T08:43:38;34.23;;;19.80;;
66581;SDS011;53438;48.898;2.308;2024-03-22T08:46:03;31.27;;;18.77;;
66581;SDS011;53438;48.898;2.308;2024-03-22T08:48:29;34.60;;;18.40;;
66581;SDS011;53438;48.898;2.308;2024-03-22T08:50:54;37.70;;;20.07;;
66581;SDS011;53438;48.898;2.308;2024-03-22T08:53:20;38.25;;;20.65;;
66581;SDS011;53438;48.898;2.308;2024-03-22T08:55:48;38.00;;;17.73;;
66581;SDS011;53438;48.898;2.308;2024-03-22T08:58:14;36.30;;;19.85;;
66581;SDS011;53438;48.898;2.308;2024-03-22T09:00:43;35.37;;;17.73;;
66581;SDS011;53438;48.898;2.308;2024-03-22T09:03:09;30.63;;;16.38;;
66581;SDS011;53438;48.898;2.308;2024-03-22T09:05:34;30.17;;;18.07;;
66581;SDS011;53438;48.898;2.308;2024-03-22T09:08:00;27.63;;;16.08;;
66581;SDS011;53438;48.898;2.308;2024-03-22T09:10:26;31.30;;;17.63;;
66581;SDS011;53438;48.898;2.308;2024-03-22T09:12:53;28.23;;;16.77;;
66581;SDS011;53438;48.898;2.308;2024-03-22T09:15:19;32.97;;;17.77;;
66581;SDS011;53438;48.898;2.308;2024-03-22T09:17:44;27.60;;;16.33;;
66581;SDS011;53438;48.898;2.308;2024-03-22T09:20:10;26.17;;;16.50;;
66581;SDS011;53438;48.898;2.308;2024-03-22T09:22:36;27.92;;;17.55;;
66581;SDS011;53438;48.898;2.308;2024-03-22T09:25:01;34.63;;;21.03;;
66581;SDS011;53438;48.898;2.308;2024-03-22T09:27:26;34.73;;;19.73;;
66581;SDS011;53438;48.898;2.308;2024-03-22T09:29:52;32.67;;;16.38;;
66581;SDS011;53438;48.898;2.308;2024-03-22T09:32:18;35.23;;;19.30;;
66581;SDS011;53438;48.898;2.308;2024-03-22T09:34:43;30.60;;;18.27;;
66581;SDS011;53438;48.898;2.308;2024-03-22T09:37:08;34.80;;;20.00;;
66581;SDS011;53438;48.898;2.308;2024-03-22T09:39:34;32.90;;;19.10;;
66581;SDS011;53438;48.898;2.308;2024-03-22T09:41:59;30.43;;;16.90;;
66581;SDS011;53438;48.898;2.308;2024-03-22T09:44:27;27.58;;;17.10;;
66581;SDS011;53438;48.898;2.308;2024-03-22T09:46:52;26.30;;;17.13;;
66581;SDS011;53438;48.898;2.308;2024-03-22T09:49:18;27.75;;;17.00;;
66581;SDS011;53438;48.898;2.308;2024-03-22T09:51:44;28.08;;;16.80;;
66581;SDS011;53438;48.898;2.308;2024-03-22T09:54:12;26.93;;;13.80;;
66581;SDS011;53438;48.898;2.308;2024-03-22T09:56:38;28.38;;;17.40;;
66581;SDS011;53438;48.898;2.308;2024-03-22T09:59:05;27.27;;;15.30;;
66581;SDS011;53438;48.898;2.308;2024-03-22T10:01:31;25.75;;;16.08;;
66581;SDS011;53438;48.898;2.308;2024-03-22T10:03:57;28.73;;;18.85;;
66581;SDS011;53438;48.898;2.308;2024-03-22T10:06:22;42.00;;;19.43;;
66581;SDS011;53438;48.898;2.308;2024-03-22T10:08:48;32.60;;;16.43;;
66581;SDS011;53438;48.898;2.308;2024-03-22T10:11:13;30.47;;;15.97;;
66581;SDS011;53438;48.898;2.308;2024-03-22T10:13:40;28.83;;;15.95;;
66581;SDS011;53438;48.898;2.308;2024-03-22T10:16:05;29.33;;;16.63;;
66581;SDS011;53438;48.898;2.308;2024-03-22T10:18:32;26.35;;;16.73;;
66581;SDS011;53438;48.898;2.308;2024-03-22T10:21:02;28.55;;;17.00;;
66581;SDS011;53438;48.898;2.308;2024-03-22T10:23:30;30.15;;;17.58;;
66581;SDS011;53438;48.898;2.308;2024-03-22T10:25:59;30.33;;;17.98;;
66581;SDS011;53438;48.898;2.308;2024-03-22T10:28:26;28.87;;;15.67;;
66581;SDS011;53438;48.898;2.308;2024-03-22T10:30:52;26.05;;;15.27;;
66581;SDS011;53438;48.898;2.308;2024-03-22T10:33:21;28.10;;;16.10;;
66581;SDS011;53438;48.898;2.308;2024-03-22T10:35:51;29.55;;;15.00;;
66581;SDS011;53438;48.898;2.308;2024-03-22T10:38:18;22.93;;;14.90;;
66581;SDS011;53438;48.898;2.308;2024-03-22T10:40:47;28.83;;;15.57;;
66581;SDS011;53438;48.898;2.308;2024-03-22T10:43:16;26.70;;;15.32;;
66581;SDS011;53438;48.898;2.308;2024-03-22T10:45:42;22.20;;;13.82;;
66581;SDS011;53438;48.898;2.308;2024-03-22T10:48:11;23.43;;;14.77;;
66581;SDS011;53438;48.898;2.308;2024-03-22T10:50:40;27.70;;;14.65;;
66581;SDS011;53438;48.898;2.308;2024-03-22T10:53:16;25.05;;;15.80;;
66581;SDS011;53438;48.898;2.308;2024-03-22T10:55:47;25.45;;;14.32;;
66581;SDS011;53438;48.898;2.308;2024-03-22T10:58:15;25.60;;;15.48;;
66581;SDS011;53438;48.898;2.308;2024-03-22T11:00:41;30.47;;;16.17;;
66581;SDS011;53438;48.898;2.308;2024-03-22T11:03:12;25.33;;;15.07;;
66581;SDS011;53438;48.898;2.308;2024-03-22T11:05:44;23.25;;;14.43;;
66581;SDS011;53438;48.898;2.308;2024-03-22T11:08:22;22.95;;;12.52;;
66581;SDS011;53438;48.898;2.308;2024-03-22T11:10:52;24.25;;;14.02;;
66581;SDS011;53438;48.898;2.308;2024-03-22T11:13:18;26.90;;;15.00;;
66581;SDS011;53438;48.898;2.308;2024-03-22T11:15:48;25.48;;;13.90;;
66581;SDS011;53438;48.898;2.308;2024-03-22T11:18:14;22.70;;;14.85;;
66581;SDS011;53438;48.898;2.308;2024-03-22T11:20:40;25.95;;;15.88;;
66581;SDS011;53438;48.898;2.308;2024-03-22T11:23:06;25.73;;;14.80;;
66581;SDS011;53438;48.898;2.308;2024-03-22T11:25:32;24.70;;;14.43;;
66581;SDS011;53438;48.898;2.308;2024-03-22T11:27:58;23.23;;;14.77;;
66581;SDS011;53438;48.898;2.308;2024-03-22T11:30:25;23.92;;;14.60;;
66581;SDS011;53438;48.898;2.308;2024-03-22T11:32:52;23.60;;;13.40;;
66581;SDS011;53438;48.898;2.308;2024-03-22T11:35:17;25.00;;;15.90;;
66581;SDS011;53438;48.898;2.308;2024-03-22T11:37:43;26.13;;;16.17;;
66581;SDS011;53438;48.898;2.308;2024-03-22T11:40:08;24.88;;;15.15;;
66581;SDS011;53438;48.898;2.308;2024-03-22T11:42:35;23.45;;;14.02;;
66581;SDS011;53438;48.898;2.308;2024-03-22T11:45:03;21.83;;;13.50;;
66581;SDS011;53438;48.898;2.308;2024-03-22T11:47:29;21.80;;;15.05;;
66581;SDS011;53438;48.898;2.308;2024-03-22T11:49:55;20.03;;;11.53;;
66581;SDS011;53438;48.898;2.308;2024-03-22T11:52:26;20.10;;;13.55;;
66581;SDS011;53438;48.898;2.308;2024-03-22T11:54:52;20.13;;;13.40;;
66581;SDS011;53438;48.898;2.308;2024-03-22T11:57:18;21.50;;;11.47;;
66581;SDS011;53438;48.898;2.308;2024-03-22T11:59:44;21.05;;;12.57;;
66581;SDS011;53438;48.898;2.308;2024-03-22T12:02:09;18.10;;;11.83;;
66581;SDS011;53438;48.898;2.308;2024-03-22T12:04:35;17.88;;;14.05;;
66581;SDS011;53438;48.898;2.308;2024-03-22T12:07:00;21.00;;;12.33;;
66581;SDS011;53438;48.898;2.308;2024-03-22T12:09:26;20.20;;;12.50;;
66581;SDS011;53438;48.898;2.308;2024-03-22T12:11:54;17.83;;;11.80;;
66581;SDS011;53438;48.898;2.308;2024-03-22T12:14:20;19.83;;;13.20;;
66581;SDS011;53438;48.898;2.308;2024-03-22T12:16:45;21.20;;;12.57;;
66581;SDS011;53438;48.898;2.308;2024-03-22T12:19:11;17.42;;;10.60;;
66581;SDS011;53438;48.898;2.308;2024-03-22T12:21:36;22.57;;;12.80;;
66581;SDS011;53438;48.898;2.308;2024-03-22T12:24:01;21.90;;;12.30;;
66581;SDS011;53438;48.898;2.308;2024-03-22T12:26:27;22.40;;;14.43;;
66581;SDS011;53438;48.898;2.308;2024-03-22T12:28:52;19.37;;;12.67;;
66581;SDS011;53438;48.898;2.308;2024-03-22T12:31:18;21.77;;;14.13;;
66581;SDS011;53438;48.898;2.308;2024-03-22T12:33:44;22.58;;;12.50;;
66581;SDS011;53438;48.898;2.308;2024-03-22T12:36:09;20.83;;;13.07;;
66581;SDS011;53438;48.898;2.308;2024-03-22T12:38:34;18.70;;;11.32;;
66581;SDS011;53438;48.898;2.308;2024-03-22T12:41:00;19.52;;;11.40;;
66581;SDS011;53438;48.898;2.308;2024-03-22T12:43:25;19.90;;;11.83;;
66581;SDS011;53438;48.898;2.308;2024-03-22T12:45:51;21.03;;;11.93;;
66581;SDS011;53438;48.898;2.308;2024-03-22T12:48:16;18.33;;;10.88;;
66581;SDS011;53438;48.898;2.308;2024-03-22T12:50:42;18.83;;;11.15;;
66581;SDS011;53438;48.898;2.308;2024-03-22T12:53:07;15.87;;;9.67;;
66581;SDS011;53438;48.898;2.308;2024-03-22T12:55:32;14.43;;;9.10;;
66581;SDS011;53438;48.898;2.308;2024-03-22T12:57:58;12.10;;;8.73;;
66581;SDS011;53438;48.898;2.308;2024-03-22T13:00:24;11.23;;;7.15;;
66581;SDS011;53438;48.898;2.308;2024-03-22T13:02:50;12.47;;;7.50;;
66581;SDS011;53438;48.898;2.308;2024-03-22T13:05:15;12.88;;;7.07;;
66581;SDS011;53438;48.898;2.308;2024-03-22T13:07:41;14.37;;;8.27;;
66581;SDS011;53438;48.898;2.308;2024-03-22T13:10:07;12.17;;;8.53;;
66581;SDS011;53438;48.898;2.308;2024-03-22T13:12:33;12.32;;;8.73;;
66581;SDS011;53438;48.898;2.308;2024-03-22T13:15:02;16.42;;;7.10;;
66581;SDS011;53438;48.898;2.308;2024-03-22T13:17:28;13.27;;;7.55;;
66581;SDS011;53438;48.898;2.308;2024-03-22T13:19:54;12.13;;;7.53;;
66581;SDS011;53438;48.898;2.308;2024-03-22T13:22:19;12.43;;;7.90;;
66581;SDS011;53438;48.898;2.308;2024-03-22T13:24:45;11.52;;;7.47;;
66581;SDS011;53438;48.898;2.308;2024-03-22T13:27:11;10.77;;;6.90;;
66581;SDS011;53438;48.898;2.308;2024-03-22T13:29:40;9.20;;;5.80;;
66581;SDS011;53438;48.898;2.308;2024-03-22T13:32:06;8.57;;;5.10;;
66581;SDS011;53438;48.898;2.308;2024-03-22T13:34:34;6.10;;;3.63;;
66581;SDS011;53438;48.898;2.308;2024-03-22T13:37:00;7.30;;;3.73;;
66581;SDS011;53438;48.898;2.308;2024-03-22T13:39:25;7.25;;;4.50;;
66581;SDS011;53438;48.898;2.308;2024-03-22T13:41:51;8.87;;;5.40;;
66581;SDS011;53438;48.898;2.308;2024-03-22T13:44:16;9.97;;;5.70;;
66581;SDS011;53438;48.898;2.308;2024-03-22T13:46:41;8.50;;;5.37;;
66581;SDS011;53438;48.898;2.308;2024-03-22T13:49:16;11.53;;;5.67;;
66581;SDS011;53438;48.898;2.308;2024-03-22T13:51:45;8.52;;;5.60;;
66581;SDS011;53438;48.898;2.308;2024-03-22T13:54:11;9.98;;;5.95;;
66581;SDS011;53438;48.898;2.308;2024-03-22T13:56:37;9.20;;;5.97;;
66581;SDS011;53438;48.898;2.308;2024-03-22T13:59:03;7.40;;;5.57;;
66581;SDS011;53438;48.898;2.308;2024-03-22T14:01:30;10.00;;;5.40;;
66581;SDS011;53438;48.898;2.308;2024-03-22T14:03:56;10.75;;;6.28;;
66581;SDS011;53438;48.898;2.308;2024-03-22T14:06:22;9.87;;;5.67;;
66581;SDS011;53438;48.898;2.308;2024-03-22T14:08:47;9.85;;;6.32;;
66581;SDS011;53438;48.898;2.308;2024-03-22T14:11:13;17.63;;;7.10;;
66581;SDS011;53438;48.898;2.308;2024-03-22T14:13:38;12.07;;;6.50;;
66581;SDS011;53438;48.898;2.308;2024-03-22T14:16:03;8.67;;;6.20;;
66581;SDS011;53438;48.898;2.308;2024-03-22T14:18:30;10.25;;;6.50;;
66581;SDS011;53438;48.898;2.308;2024-03-22T14:20:55;11.53;;;7.20;;
66581;SDS011;53438;48.898;2.308;2024-03-22T14:23:20;10.63;;;5.90;;
66581;SDS011;53438;48.898;2.308;2024-03-22T14:25:46;9.10;;;5.97;;
66581;SDS011;53438;48.898;2.308;2024-03-22T14:28:13;9.35;;;6.28;;
66581;SDS011;53438;48.898;2.308;2024-03-22T14:30:39;12.00;;;6.90;;
66581;SDS011;53438;48.898;2.308;2024-03-22T14:33:04;9.50;;;5.80;;
66581;SDS011;53438;48.898;2.308;2024-03-22T14:35:29;8.63;;;5.47;;
66581;SDS011;53438;48.898;2.308;2024-03-22T14:37:55;7.97;;;6.45;;
66581;SDS011;53438;48.898;2.308;2024-03-22T14:40:20;8.73;;;5.57;;
66581;SDS011;53438;48.898;2.308;2024-03-22T14:42:45;7.60;;;5.20;;
66581;SDS011;53438;48.898;2.308;2024-03-22T14:45:11;10.03;;;5.60;;
66581;SDS011;53438;48.898;2.308;2024-03-22T14:47:36;10.48;;;5.22;;
66581;SDS011;53438;48.898;2.308;2024-03-22T14:50:02;10.47;;;6.13;;
66581;SDS011;53438;48.898;2.308;2024-03-22T14:52:28;9.60;;;6.00;;
66581;SDS011;53438;48.898;2.308;2024-03-22T14:54:54;9.65;;;5.45;;
66581;SDS011;53438;48.898;2.308;2024-03-22T14:57:19;10.13;;;6.23;;
66581;SDS011;53438;48.898;2.308;2024-03-22T14:59:45;8.03;;;5.00;;
66581;SDS011;53438;48.898;2.308;2024-03-22T15:02:13;10.20;;;5.20;;
66581;SDS011;53438;48.898;2.308;2024-03-22T15:04:38;7.85;;;4.57;;
66581;SDS011;53438;48.898;2.308;2024-03-22T15:07:04;8.85;;;4.72;;
66581;SDS011;53438;48.898;2.308;2024-03-22T15:09:29;10.50;;;6.07;;
66581;SDS011;53438;48.898;2.308;2024-03-22T15:11:54;6.40;;;4.50;;
66581;SDS011;53438;48.898;2.308;2024-03-22T15:14:23;5.78;;;4.22;;
66581;SDS011;53438;48.898;2.308;2024-03-22T15:16:49;5.77;;;3.77;;
66581;SDS011;53438;48.898;2.308;2024-03-22T15:19:15;6.72;;;4.65;;
66581;SDS011;53438;48.898;2.308;2024-03-22T15:21:41;6.40;;;3.90;;
66581;SDS011;53438;48.898;2.308;2024-03-22T15:24:06;10.57;;;4.20;;
66581;SDS011;53438;48.898;2.308;2024-03-22T15:26:32;6.22;;;3.85;;
66581;SDS011;53438;48.898;2.308;2024-03-22T15:28:57;5.23;;;3.93;;
66581;SDS011;53438;48.898;2.308;2024-03-22T15:31:23;5.60;;;3.30;;
66581;SDS011;53438;48.898;2.308;2024-03-22T15:33:48;5.50;;;3.35;;
66581;SDS011;53438;48.898;2.308;2024-03-22T15:36:14;5.67;;;3.50;;
66581;SDS011;53438;48.898;2.308;2024-03-22T15:38:39;6.43;;;3.43;;
66581;SDS011;53438;48.898;2.308;2024-03-22T15:41:05;3.97;;;2.60;;
66581;SDS011;53438;48.898;2.308;2024-03-22T15:43:30;4.20;;;3.00;;
66581;SDS011;53438;48.898;2.308;2024-03-22T15:45:55;4.60;;;2.90;;
66581;SDS011;53438;48.898;2.308;2024-03-22T15:48:21;4.70;;;3.20;;
66581;SDS011;53438;48.898;2.308;2024-03-22T15:50:48;6.18;;;3.80;;
66581;SDS011;53438;48.898;2.308;2024-03-22T15:53:15;4.85;;;3.28;;
66581;SDS011;53438;48.898;2.308;2024-03-22T15:55:41;6.37;;;4.30;;
66581;SDS011;53438;48.898;2.308;2024-03-22T15:58:06;4.63;;;3.30;;
66581;SDS011;53438;48.898;2.308;2024-03-22T16:00:31;5.60;;;3.83;;
66581;SDS011;53438;48.898;2.308;2024-03-22T16:02:57;7.95;;;3.95;;
66581;SDS011;53438;48.898;2.308;2024-03-22T16:05:23;3.60;;;2.75;;
66581;SDS011;53438;48.898;2.308;2024-03-22T16:07:49;3.65;;;2.33;;
66581;SDS011;53438;48.898;2.308;2024-03-22T16:10:15;3.13;;;2.07;;
66581;SDS011;53438;48.898;2.308;2024-03-22T16:12:40;3.33;;;1.60;;
66581;SDS011;53438;48.898;2.308;2024-03-22T16:15:06;3.33;;;1.60;;
66581;SDS011;53438;48.898;2.308;2024-03-22T16:17:32;2.55;;;1.60;;
66581;SDS011;53438;48.898;2.308;2024-03-22T16:19:57;2.83;;;2.10;;
66581;SDS011;53438;48.898;2.308;2024-03-22T16:22:23;4.23;;;2.53;;
66581;SDS011;53438;48.898;2.308;2024-03-22T16:24:51;5.18;;;2.42;;
66581;SDS011;53438;48.898;2.308;2024-03-22T16:27:19;3.67;;;2.10;;
66581;SDS011;53438;48.898;2.308;2024-03-22T16:29:46;3.95;;;2.00;;
66581;SDS011;53438;48.898;2.308;2024-03-22T16:32:12;3.22;;;1.92;;
66581;SDS011;53438;48.898;2.308;2024-03-22T16:34:38;3.23;;;1.90;;
66581;SDS011;53438;48.898;2.308;2024-03-22T16:37:04;3.78;;;1.73;;
66581;SDS011;53438;48.898;2.308;2024-03-22T16:39:30;2.85;;;1.67;;
66581;SDS011;53438;48.898;2.308;2024-03-22T16:41:56;2.73;;;1.90;;
66581;SDS011;53438;48.898;2.308;2024-03-22T16:44:21;2.50;;;1.70;;
66581;SDS011;53438;48.898;2.308;2024-03-22T16:46:46;3.15;;;1.80;;
66581;SDS011;53438;48.898;2.308;2024-03-22T16:49:12;3.33;;;2.27;;
66581;SDS011;53438;48.898;2.308;2024-03-22T16:51:37;4.70;;;2.03;;
66581;SDS011;53438;48.898;2.308;2024-03-22T16:54:03;3.87;;;2.10;;
66581;SDS011;53438;48.898;2.308;2024-03-22T16:56:28;4.20;;;1.90;;
66581;SDS011;53438;48.898;2.308;2024-03-22T16:58:54;6.10;;;2.40;;
66581;SDS011;53438;48.898;2.308;2024-03-22T17:01:19;3.73;;;2.17;;
66581;SDS011;53438;48.898;2.308;2024-03-22T17:03:45;4.93;;;1.90;;
66581;SDS011;53438;48.898;2.308;2024-03-22T17:06:10;4.43;;;2.00;;
66581;SDS011;53438;48.898;2.308;2024-03-22T17:08:37;3.70;;;2.38;;
66581;SDS011;53438;48.898;2.308;2024-03-22T17:11:03;4.95;;;2.17;;
66581;SDS011;53438;48.898;2.308;2024-03-22T17:13:29;4.05;;;2.30;;
66581;SDS011;53438;48.898;2.308;2024-03-22T17:15:55;6.90;;;2.83;;
66581;SDS011;53438;48.898;2.308;2024-03-22T17:18:21;5.20;;;3.10;;
66581;SDS011;53438;48.898;2.308;2024-03-22T17:20:47;3.60;;;2.40;;
66581;SDS011;53438;48.898;2.308;2024-03-22T17:23:13;4.67;;;2.73;;